Time;durP1;ratioP1;P1;durP2;ratioP2;P2;SDS_P1;SDS_P2;PMS_P1;PMS_P2;Temp;Humidity;BMP_temperature;BMP_pressure;BME280_temperature;BME280_humidity;BME280_pressure;Samples;Min_cycle;Max_cycle;Signal;HPM_P1;HPM_P2
2022/10/19 00:01:18;;;;;;;7.20;4.60;;;12.20;99.90;;;;;;5019718;28;20044;-75
2022/10/19 00:03:47;;;;;;;7.15;4.38;;;12.30;99.90;;;;;;5024370;28;20030;-76
2022/10/19 00:06:30;;;;;;;4.53;3.85;;;12.30;99.90;;;;;;5016486;28;20030;-75
2022/10/19 00:09:05;;;;;;;6.38;3.70;;;12.30;99.90;;;;;;5020523;28;20022;-75
2022/10/19 00:11:32;;;;;;;6.85;4.38;;;12.30;99.90;;;;;;5001859;28;20022;-75
2022/10/19 00:13:58;;;;;;;5.93;3.55;;;12.30;99.90;;;;;;5012968;28;20398;-75
2022/10/19 00:16:27;;;;;;;6.93;4.10;;;12.30;99.90;;;;;;5020330;28;20057;-76
2022/10/19 00:18:56;;;;;;;8.70;4.80;;;12.30;99.90;;;;;;5033071;28;20084;-75
2022/10/19 00:21:22;;;;;;;5.40;4.22;;;12.20;99.90;;;;;;5032713;28;20080;-75
2022/10/19 00:23:48;;;;;;;7.30;3.90;;;12.20;99.90;;;;;;5033870;28;20395;-75
2022/10/19 00:26:14;;;;;;;6.43;4.53;;;12.30;99.90;;;;;;5026000;28;20025;-76
2022/10/19 00:28:40;;;;;;;7.57;4.45;;;12.30;99.90;;;;;;5027062;28;20072;-76
2022/10/19 00:31:09;;;;;;;5.93;4.05;;;12.20;99.90;;;;;;5014172;28;20021;-75
2022/10/19 00:33:34;;;;;;;8.98;4.20;;;12.20;99.90;;;;;;5027234;28;20017;-76
2022/10/19 00:36:00;;;;;;;5.47;4.50;;;12.20;99.90;;;;;;5020714;28;20412;-76
2022/10/19 00:38:26;;;;;;;7.18;4.22;;;12.10;99.90;;;;;;5018766;28;20108;-76
2022/10/19 00:40:51;;;;;;;11.32;4.75;;;12.10;99.90;;;;;;5012918;28;20033;-76
2022/10/19 00:43:20;;;;;;;9.25;6.15;;;12.10;99.90;;;;;;5027075;28;20169;-76
2022/10/19 00:45:46;;;;;;;6.53;4.28;;;11.80;99.90;;;;;;5013691;28;20030;-75
2022/10/19 00:48:17;;;;;;;7.47;5.10;;;11.80;99.90;;;;;;5013339;28;20018;-75
2022/10/19 00:50:43;;;;;;;8.15;5.38;;;11.90;99.90;;;;;;5013721;28;20097;-75
2022/10/19 00:53:09;;;;;;;354.58;14.63;;;11.90;99.90;;;;;;5025415;28;20399;-75
2022/10/19 00:55:36;;;;;;;747.42;26.75;;;11.80;99.90;;;;;;5013577;28;20022;-75
2022/10/19 00:58:02;;;;;;;473.05;17.13;;;11.60;99.90;;;;;;5029074;28;20391;-76
2022/10/19 01:00:28;;;;;;;72.15;6.15;;;11.50;99.90;;;;;;5023530;28;20030;-75
2022/10/19 01:02:55;;;;;;;41.33;5.60;;;11.50;99.90;;;;;;5025401;28;20496;-75
2022/10/19 01:05:21;;;;;;;63.30;7.65;;;11.50;99.90;;;;;;5013344;28;20034;-76
2022/10/19 01:07:46;;;;;;;148.70;8.80;;;11.50;99.90;;;;;;5026140;28;20029;-75
2022/10/19 01:10:12;;;;;;;54.88;6.20;;;11.30;99.90;;;;;;5022414;28;20025;-75
2022/10/19 01:12:37;;;;;;;81.50;8.73;;;11.20;99.90;;;;;;5015968;28;20024;-75
2022/10/19 01:15:06;;;;;;;42.33;7.03;;;11.10;99.90;;;;;;5013338;28;20403;-75
2022/10/19 01:17:57;;;;;;;90.47;7.20;;;11.10;99.90;;;;;;5015899;28;20462;-75
2022/10/19 01:20:37;;;;;;;54.40;6.43;;;11.20;99.90;;;;;;5018469;28;20065;-75
2022/10/19 01:23:09;;;;;;;46.70;6.32;;;11.10;99.90;;;;;;5023358;28;20054;-76
2022/10/19 01:25:58;;;;;;;18.42;6.05;;;11.10;99.90;;;;;;5024866;28;20109;-75
2022/10/19 01:29:04;;;;;;;47.22;6.95;;;11.20;99.90;;;;;;5024803;28;20029;-75
2022/10/19 01:31:51;;;;;;;45.38;9.27;;;11.30;99.90;;;;;;5011755;28;20827;-74
2022/10/19 01:34:51;;;;;;;77.22;12.27;;;11.20;99.90;;;;;;5000195;28;20153;-75
2022/10/19 01:37:22;;;;;;;71.80;8.52;;;11.20;99.90;;;;;;5025692;28;20507;-75
2022/10/19 01:40:19;;;;;;;283.70;20.15;;;11.30;99.90;;;;;;5011680;28;20030;-75
2022/10/19 01:43:08;;;;;;;332.95;16.00;;;11.00;99.90;;;;;;5020382;28;20027;-75
2022/10/19 01:45:51;;;;;;;394.38;17.65;;;11.00;99.90;;;;;;5014826;28;20490;-75
2022/10/19 01:48:25;;;;;;;114.30;8.80;;;11.10;99.90;;;;;;5018500;28;20021;-75
2022/10/19 01:50:54;;;;;;;170.77;12.50;;;11.20;99.90;;;;;;5019948;28;20026;-75
2022/10/19 01:53:21;;;;;;;265.50;16.25;;;11.20;99.90;;;;;;5025739;28;20475;-75
2022/10/19 01:55:50;;;;;;;269.95;15.70;;;11.20;99.90;;;;;;5024249;28;20033;-75
2022/10/19 01:58:20;;;;;;;173.50;13.23;;;11.20;99.90;;;;;;5018869;28;20620;-75
2022/10/19 02:00:49;;;;;;;145.45;14.07;;;11.20;99.90;;;;;;5019202;28;20109;-76
2022/10/19 02:03:16;;;;;;;111.50;13.02;;;11.10;99.90;;;;;;5025609;28;20028;-76
2022/10/19 02:05:44;;;;;;;558.20;25.73;;;11.20;99.90;;;;;;5024164;28;20025;-76
2022/10/19 02:08:20;;;;;;;162.45;9.80;;;11.00;99.90;;;;;;5004296;28;20053;-76
2022/10/19 02:10:47;;;;;;;191.10;9.90;;;11.00;99.90;;;;;;5018101;28;20115;-76
2022/10/19 02:13:14;;;;;;;135.52;9.93;;;11.00;99.90;;;;;;5023995;28;20133;-76
2022/10/19 02:15:43;;;;;;;144.50;9.70;;;10.90;99.90;;;;;;5025335;28;20076;-76
2022/10/19 02:18:12;;;;;;;117.10;9.20;;;11.10;99.90;;;;;;5019270;28;20052;-76
2022/10/19 02:20:37;;;;;;;135.07;11.05;;;10.90;99.90;;;;;;5017189;28;20124;-76
2022/10/19 02:23:07;;;;;;;31.90;6.15;;;10.80;99.90;;;;;;5021862;28;20121;-76
2022/10/19 02:25:33;;;;;;;45.97;7.22;;;10.80;99.90;;;;;;5023970;28;20032;-76
2022/10/19 02:28:01;;;;;;;29.67;4.75;;;10.80;99.90;;;;;;5020992;28;20091;-76
2022/10/19 02:30:27;;;;;;;49.22;5.75;;;10.80;99.90;;;;;;5018401;28;20076;-76
2022/10/19 02:32:52;;;;;;;55.78;6.60;;;10.80;99.90;;;;;;5031806;28;20017;-76
2022/10/19 02:35:18;;;;;;;71.47;7.95;;;10.90;99.90;;;;;;5018401;28;20388;-76
2022/10/19 02:37:44;;;;;;;51.75;7.85;;;10.80;99.90;;;;;;5021121;28;20476;-76
2022/10/19 02:40:10;;;;;;;85.93;8.52;;;10.90;99.90;;;;;;5025319;28;20032;-76
2022/10/19 02:42:44;;;;;;;165.73;12.73;;;10.90;99.90;;;;;;5020714;28;20037;-76
2022/10/19 02:45:21;;;;;;;29.02;5.88;;;10.80;99.90;;;;;;5015451;28;20042;-76
2022/10/19 02:47:54;;;;;;;86.75;8.32;;;10.90;99.90;;;;;;5010408;28;20503;-75
2022/10/19 02:50:21;;;;;;;37.90;6.47;;;10.90;99.90;;;;;;5023657;28;20442;-74
2022/10/19 02:52:46;;;;;;;52.22;6.18;;;10.70;99.90;;;;;;5022865;28;20148;-75
2022/10/19 02:55:12;;;;;;;114.95;11.70;;;10.80;99.90;;;;;;5011429;28;20061;-74
2022/10/19 02:57:38;;;;;;;79.30;6.82;;;10.90;99.90;;;;;;5023634;28;20479;-74
2022/10/19 03:00:05;;;;;;;31.55;6.60;;;10.70;99.90;;;;;;5013143;28;20111;-75
2022/10/19 03:02:30;;;;;;;43.33;5.63;;;10.70;99.90;;;;;;5028693;28;20032;-75
2022/10/19 03:04:56;;;;;;;31.23;5.93;;;10.70;99.90;;;;;;5028781;28;20030;-75
2022/10/19 03:07:21;;;;;;;20.48;4.75;;;10.80;99.90;;;;;;5027065;28;20025;-75
2022/10/19 03:09:47;;;;;;;94.95;7.47;;;10.80;99.90;;;;;;5015723;28;20160;-74
2022/10/19 03:12:14;;;;;;;151.85;14.98;;;10.90;99.90;;;;;;5028302;28;20032;-74
2022/10/19 03:14:39;;;;;;;240.52;16.83;;;10.80;99.90;;;;;;5021919;28;20026;-74
2022/10/19 03:17:05;;;;;;;76.43;6.63;;;10.80;99.90;;;;;;5033537;28;20029;-75
2022/10/19 03:19:31;;;;;;;33.53;5.05;;;10.90;99.90;;;;;;5028697;28;20115;-75
2022/10/19 03:21:56;;;;;;;43.63;14.48;;;10.90;99.90;;;;;;5028352;28;20031;-75
2022/10/19 03:24:22;;;;;;;90.88;7.72;;;10.70;99.90;;;;;;5028930;28;20030;-74
2022/10/19 03:26:47;;;;;;;54.67;8.82;;;10.70;99.90;;;;;;5026590;28;20036;-74
2022/10/19 03:29:13;;;;;;;53.55;7.53;;;10.70;99.90;;;;;;5015428;28;20038;-74
2022/10/19 03:31:38;;;;;;;21.17;5.07;;;10.70;99.90;;;;;;5015189;28;20036;-74
2022/10/19 03:34:04;;;;;;;60.03;7.15;;;10.60;99.90;;;;;;5015083;28;20026;-74
2022/10/19 03:36:32;;;;;;;119.78;8.63;;;10.60;99.90;;;;;;5014917;28;20095;-74
2022/10/19 03:38:59;;;;;;;255.40;18.30;;;10.60;99.90;;;;;;5034205;28;20499;-74
2022/10/19 03:41:27;;;;;;;174.43;10.30;;;10.50;99.90;;;;;;5021658;28;20068;-74
2022/10/19 03:43:53;;;;;;;468.75;21.52;;;10.50;99.90;;;;;;5008702;28;20098;-74
2022/10/19 03:46:19;;;;;;;186.32;12.38;;;10.50;99.90;;;;;;5034584;28;20450;-75
2022/10/19 03:48:46;;;;;;;76.93;7.75;;;10.50;99.90;;;;;;5001397;28;20018;-75
2022/10/19 03:51:14;;;;;;;233.02;10.40;;;10.50;99.90;;;;;;5014757;28;20373;-74
2022/10/19 03:53:39;;;;;;;165.85;10.05;;;10.40;99.90;;;;;;5021648;28;20590;-75
2022/10/19 03:56:09;;;;;;;152.38;9.32;;;10.50;99.90;;;;;;5019955;28;20121;-76
2022/10/19 03:58:36;;;;;;;210.98;15.85;;;10.50;99.90;;;;;;5027077;28;20034;-75
2022/10/19 04:01:07;;;;;;;300.63;14.95;;;10.30;99.90;;;;;;5014359;28;20480;-75
2022/10/19 04:03:32;;;;;;;181.52;8.77;;;10.30;99.90;;;;;;5019628;28;20030;-76
2022/10/19 04:06:10;;;;;;;17.88;3.65;;;10.30;99.90;;;;;;5014940;28;20032;-76
2022/10/19 04:08:35;;;;;;;68.28;5.38;;;10.40;99.90;;;;;;5023949;28;20018;-76
2022/10/19 04:11:04;;;;;;;71.70;4.47;;;10.50;99.90;;;;;;5026021;28;20057;-76
2022/10/19 04:13:30;;;;;;;105.22;6.55;;;10.50;99.90;;;;;;5023400;28;20626;-76
2022/10/19 04:15:56;;;;;;;58.20;4.90;;;10.30;99.90;;;;;;5019465;28;20637;-76
2022/10/19 04:18:21;;;;;;;51.92;5.18;;;10.40;99.90;;;;;;5023326;28;20053;-76
2022/10/19 04:20:47;;;;;;;69.55;5.30;;;10.40;99.90;;;;;;5016756;28;20032;-76
2022/10/19 04:23:12;;;;;;;130.98;7.55;;;10.40;99.90;;;;;;5022369;28;20033;-76
2022/10/19 04:25:38;;;;;;;99.40;6.68;;;10.40;99.90;;;;;;5027517;28;20121;-75
2022/10/19 04:28:04;;;;;;;71.15;5.45;;;10.30;99.90;;;;;;5022568;28;20021;-76
2022/10/19 04:30:29;;;;;;;99.15;9.15;;;10.40;99.90;;;;;;5019373;28;20561;-76
2022/10/19 04:32:55;;;;;;;41.97;5.55;;;10.30;99.90;;;;;;5023923;28;20022;-76
2022/10/19 04:35:20;;;;;;;70.03;6.10;;;10.20;99.90;;;;;;5027277;28;20030;-76
2022/10/19 04:37:46;;;;;;;166.95;9.43;;;10.30;99.90;;;;;;5022049;28;20026;-76
2022/10/19 04:40:11;;;;;;;157.27;8.05;;;10.30;99.90;;;;;;5019322;28;20049;-76
2022/10/19 04:42:37;;;;;;;136.48;9.40;;;10.30;99.90;;;;;;5024020;28;20030;-76
2022/10/19 04:45:03;;;;;;;136.88;10.27;;;10.20;99.90;;;;;;5025859;28;20037;-75
2022/10/19 04:47:28;;;;;;;115.28;7.43;;;10.20;99.90;;;;;;5022863;28;20028;-76
2022/10/19 04:49:54;;;;;;;144.75;8.00;;;10.20;99.90;;;;;;5020019;28;20052;-75
2022/10/19 04:52:20;;;;;;;93.35;7.57;;;10.30;99.90;;;;;;5024699;28;20029;-76
2022/10/19 04:54:45;;;;;;;223.13;11.48;;;10.20;99.90;;;;;;5025619;28;20086;-75
2022/10/19 04:57:11;;;;;;;169.23;10.05;;;10.20;99.90;;;;;;5022271;28;20387;-75
2022/10/19 04:59:36;;;;;;;63.72;8.05;;;10.20;99.90;;;;;;5017789;28;20025;-75
2022/10/19 05:02:02;;;;;;;103.38;8.52;;;10.20;99.90;;;;;;5022702;28;20037;-76
2022/10/19 05:04:28;;;;;;;57.80;9.25;;;10.20;99.90;;;;;;5019617;28;20022;-76
2022/10/19 05:06:53;;;;;;;83.72;8.00;;;10.20;99.90;;;;;;5031338;28;20067;-75
2022/10/19 05:09:19;;;;;;;66.20;8.13;;;10.20;99.90;;;;;;5013985;28;20091;-76
2022/10/19 05:11:44;;;;;;;57.80;9.68;;;10.30;99.90;;;;;;5020303;28;20067;-77
2022/10/19 05:14:10;;;;;;;59.05;10.00;;;10.30;99.90;;;;;;5014122;28;20495;-76
2022/10/19 05:16:35;;;;;;;32.78;6.82;;;10.40;99.90;;;;;;5019672;28;20060;-75
2022/10/19 05:19:01;;;;;;;31.77;7.43;;;10.40;99.90;;;;;;5017767;28;20033;-74
2022/10/19 05:21:28;;;;;;;45.38;8.10;;;10.40;99.90;;;;;;5031123;28;20033;-74
2022/10/19 05:23:55;;;;;;;36.03;7.95;;;10.30;99.90;;;;;;5016844;28;20034;-74
2022/10/19 05:26:22;;;;;;;57.47;10.63;;;10.30;99.90;;;;;;5012776;28;20414;-74
2022/10/19 05:28:50;;;;;;;55.17;8.70;;;10.40;99.90;;;;;;5025989;28;20017;-74
2022/10/19 05:31:18;;;;;;;70.72;8.68;;;10.30;99.90;;;;;;5022038;28;20075;-74
2022/10/19 05:33:44;;;;;;;52.45;8.10;;;10.30;99.90;;;;;;5016460;28;20095;-74
2022/10/19 05:36:17;;;;;;;39.38;7.03;;;10.30;99.90;;;;;;5012737;28;20030;-75
2022/10/19 05:38:44;;;;;;;88.72;9.27;;;10.30;99.90;;;;;;5025867;28;20026;-74
2022/10/19 05:41:11;;;;;;;36.60;7.60;;;10.30;99.90;;;;;;5011291;28;20056;-74
2022/10/19 05:43:36;;;;;;;82.22;12.85;;;10.30;99.90;;;;;;5012657;28;20483;-74
2022/10/19 05:46:05;;;;;;;84.15;10.05;;;10.30;99.90;;;;;;5011136;28;20095;-74
2022/10/19 05:48:33;;;;;;;108.40;10.10;;;10.20;99.90;;;;;;5011206;28;20029;-74
2022/10/19 05:51:00;;;;;;;94.80;9.75;;;10.30;99.90;;;;;;5023367;28;20426;-75
2022/10/19 05:53:27;;;;;;;122.40;12.15;;;10.30;99.90;;;;;;5018919;28;20026;-75
2022/10/19 05:55:52;;;;;;;120.38;10.70;;;10.30;99.90;;;;;;5020301;28;20149;-72
2022/10/19 05:58:18;;;;;;;79.65;10.88;;;10.30;99.90;;;;;;5016200;28;20029;-72
2022/10/19 06:00:52;;;;;;;197.65;14.52;;;10.30;99.90;;;;;;5020444;28;20365;-75
2022/10/19 06:03:18;;;;;;;149.50;12.40;;;10.40;99.90;;;;;;5025795;28;20026;-75
2022/10/19 06:05:44;;;;;;;106.05;12.23;;;10.40;99.90;;;;;;5009327;28;20392;-75
2022/10/19 06:08:09;;;;;;;170.57;14.95;;;10.40;99.90;;;;;;5024793;28;20021;-75
2022/10/19 06:10:35;;;;;;;123.00;12.70;;;10.40;99.90;;;;;;5009669;28;20072;-74
2022/10/19 06:13:00;;;;;;;126.10;16.73;;;10.40;99.90;;;;;;5018025;28;20075;-75
2022/10/19 06:15:26;;;;;;;102.75;12.70;;;10.40;99.90;;;;;;5019584;28;20079;-75
2022/10/19 06:17:51;;;;;;;88.88;12.27;;;10.40;99.90;;;;;;5025428;28;20116;-74
2022/10/19 06:20:17;;;;;;;83.25;11.35;;;10.50;99.90;;;;;;5023292;28;20094;-74
2022/10/19 06:22:42;;;;;;;80.63;11.52;;;10.60;99.90;;;;;;5024980;28;20109;-74
2022/10/19 06:25:08;;;;;;;93.32;12.18;;;10.60;99.90;;;;;;5011992;28;20045;-74
2022/10/19 06:27:33;;;;;;;48.30;12.50;;;10.60;99.90;;;;;;5024824;28;20426;-74
2022/10/19 06:29:59;;;;;;;35.28;10.15;;;10.60;99.90;;;;;;5023115;28;20029;-74
2022/10/19 06:32:24;;;;;;;75.50;11.63;;;10.70;99.90;;;;;;5011761;28;20026;-74
2022/10/19 06:34:50;;;;;;;62.78;11.95;;;10.80;99.90;;;;;;5023831;28;20021;-75
2022/10/19 06:37:16;;;;;;;75.50;14.68;;;10.80;99.90;;;;;;5031446;28;20072;-75
2022/10/19 06:39:41;;;;;;;57.95;15.50;;;10.80;99.90;;;;;;5018201;28;20026;-75
2022/10/19 06:42:08;;;;;;;53.20;14.00;;;10.90;99.90;;;;;;5018130;28;20026;-75
2022/10/19 06:44:34;;;;;;;40.42;14.52;;;10.80;99.90;;;;;;5031343;28;20037;-75
2022/10/19 06:46:59;;;;;;;39.38;15.52;;;10.90;99.90;;;;;;5012686;28;20030;-75
2022/10/19 06:49:25;;;;;;;30.17;14.13;;;11.10;99.90;;;;;;5010842;28;20029;-75
2022/10/19 06:51:50;;;;;;;25.63;13.32;;;11.20;99.90;;;;;;5010891;28;20387;-74
2022/10/19 06:54:16;;;;;;;24.85;12.13;;;11.20;99.90;;;;;;5010821;28;20029;-75
2022/10/19 06:56:41;;;;;;;21.77;12.43;;;11.30;99.90;;;;;;5012545;28;20022;-75
2022/10/19 06:59:08;;;;;;;27.48;13.18;;;11.30;99.90;;;;;;5011699;28;20037;-75
2022/10/19 07:01:34;;;;;;;22.23;11.80;;;11.30;99.90;;;;;;5017254;28;20032;-75
2022/10/19 07:04:00;;;;;;;22.55;11.10;;;11.30;99.90;;;;;;5018664;28;20026;-75
2022/10/19 07:06:26;;;;;;;18.42;10.80;;;11.30;99.90;;;;;;5011582;28;20050;-75
2022/10/19 07:08:52;;;;;;;18.73;11.10;;;11.40;99.90;;;;;;5010405;28;20022;-74
2022/10/19 07:11:19;;;;;;;20.50;11.35;;;11.30;99.90;;;;;;5025095;28;20014;-75
2022/10/19 07:13:45;;;;;;;19.67;12.13;;;11.20;99.90;;;;;;5023364;28;20075;-75
2022/10/19 07:16:13;;;;;;;23.65;12.93;;;11.30;99.90;;;;;;5013035;28;20026;-76
2022/10/19 07:18:39;;;;;;;20.58;12.50;;;11.40;99.90;;;;;;5023320;28;20037;-76
2022/10/19 07:21:08;;;;;;;25.35;13.45;;;11.40;99.90;;;;;;5018260;28;20029;-75
2022/10/19 07:23:36;;;;;;;28.52;14.52;;;11.30;99.90;;;;;;5019102;28;20080;-74
2022/10/19 07:26:07;;;;;;;31.58;14.77;;;11.20;99.90;;;;;;5011438;28;20037;-74
2022/10/19 07:28:34;;;;;;;24.05;13.30;;;11.30;99.90;;;;;;5024255;28;20022;-74
2022/10/19 07:31:07;;;;;;;22.27;13.35;;;11.30;99.90;;;;;;5010214;28;20025;-74
2022/10/19 07:33:33;;;;;;;22.25;13.10;;;11.40;99.90;;;;;;5025520;28;20026;-74
2022/10/19 07:36:01;;;;;;;26.13;13.80;;;11.40;99.90;;;;;;5011021;28;20032;-74
2022/10/19 07:38:26;;;;;;;21.00;12.82;;;11.40;99.90;;;;;;5009865;28;20087;-74
2022/10/19 07:41:12;;;;;;;21.75;12.20;;;11.50;99.90;;;;;;5011407;28;20105;-75
2022/10/19 07:43:39;;;;;;;18.15;12.23;;;11.70;99.90;;;;;;5014867;28;20049;-75
2022/10/19 07:46:10;;;;;;;17.55;11.85;;;11.80;99.90;;;;;;5022281;28;20061;-74
2022/10/19 07:48:36;;;;;;;19.33;12.40;;;11.90;99.90;;;;;;5019080;28;20018;-74
2022/10/19 07:51:04;;;;;;;19.25;12.20;;;12.00;99.90;;;;;;5023770;28;20063;-75
2022/10/19 07:53:30;;;;;;;19.38;12.40;;;12.00;99.90;;;;;;5032464;28;20033;-75
2022/10/19 07:56:01;;;;;;;17.30;11.70;;;12.10;99.90;;;;;;5022265;28;20034;-75
2022/10/19 07:58:26;;;;;;;21.55;12.15;;;12.10;99.90;;;;;;5027651;28;20164;-75
2022/10/19 08:00:59;;;;;;;17.80;12.68;;;12.10;99.90;;;;;;5013439;28;20049;-76
2022/10/19 08:03:24;;;;;;;20.70;12.60;;;12.20;99.90;;;;;;5009386;28;20024;-74
2022/10/19 08:05:50;;;;;;;18.08;12.20;;;12.40;99.90;;;;;;5019700;28;20022;-75
2022/10/19 08:08:15;;;;;;;16.88;11.90;;;12.40;99.90;;;;;;5027098;28;20022;-76
2022/10/19 08:10:41;;;;;;;19.45;12.50;;;12.40;99.90;;;;;;5026497;28;20025;-75
2022/10/19 08:13:06;;;;;;;23.58;13.73;;;12.50;99.90;;;;;;5020313;28;20017;-75
2022/10/19 08:15:32;;;;;;;22.10;13.38;;;12.50;99.90;;;;;;5020367;28;20109;-74
2022/10/19 08:17:59;;;;;;;19.05;12.73;;;12.50;99.90;;;;;;5012822;28;20041;-75
2022/10/19 08:20:25;;;;;;;20.85;13.95;;;12.60;99.90;;;;;;5026436;28;20112;-75
2022/10/19 08:22:51;;;;;;;19.13;13.95;;;12.80;99.90;;;;;;5021492;28;20061;-76
2022/10/19 08:25:16;;;;;;;19.75;13.25;;;12.80;99.90;;;;;;5020552;28;20029;-76
2022/10/19 08:27:42;;;;;;;21.58;13.88;;;12.80;99.90;;;;;;5027011;28;20034;-75
2022/10/19 08:30:08;;;;;;;21.65;14.07;;;12.90;99.90;;;;;;5027387;28;20079;-75
2022/10/19 08:32:33;;;;;;;19.80;14.38;;;12.90;99.90;;;;;;5020801;28;20017;-76
2022/10/19 08:34:59;;;;;;;20.95;14.13;;;13.00;99.90;;;;;;5019382;28;20460;-74
2022/10/19 08:37:24;;;;;;;19.58;13.38;;;12.90;99.90;;;;;;5027059;28;20018;-75
2022/10/19 08:39:50;;;;;;;22.50;14.05;;;13.00;99.90;;;;;;5026921;28;20368;-75
2022/10/19 08:42:20;;;;;;;20.40;13.32;;;13.20;99.90;;;;;;5020585;28;20029;-74
2022/10/19 08:45:20;;;;;;;18.48;13.60;;;13.40;99.90;;;;;;5032012;28;20712;-75
2022/10/19 08:48:02;;;;;;;20.17;13.27;;;13.40;99.90;;;;;;5023700;28;20041;-74
2022/10/19 08:50:37;;;;;;;18.85;13.07;;;13.50;99.90;;;;;;5007922;28;20043;-75
2022/10/19 08:53:11;;;;;;;22.65;14.93;;;13.40;99.90;;;;;;5020400;28;20033;-75
2022/10/19 08:56:14;;;;;;;21.30;14.32;;;13.60;99.90;;;;;;5033556;28;20053;-74
2022/10/19 08:58:58;;;;;;;19.15;13.23;;;13.50;99.90;;;;;;5032950;28;20033;-76
2022/10/19 09:01:33;;;;;;;22.10;13.40;;;13.60;99.90;;;;;;5018002;28;20026;-75
2022/10/19 09:04:14;;;;;;;21.48;14.88;;;13.60;99.90;;;;;;5021083;28;20022;-76
2022/10/19 09:07:11;;;;;;;20.05;14.20;;;13.70;99.90;;;;;;5008299;28;20041;-76
2022/10/19 09:09:43;;;;;;;23.23;13.77;;;13.60;99.90;;;;;;5020155;28;20075;-75
2022/10/19 09:12:14;;;;;;;18.35;13.88;;;13.70;99.90;;;;;;5018312;28;20028;-75
2022/10/19 09:14:56;;;;;;;19.50;12.65;;;13.70;99.90;;;;;;5013529;28;20632;-75
2022/10/19 09:17:24;;;;;;;19.58;13.05;;;13.60;99.90;;;;;;5013428;28;20029;-73
2022/10/19 09:19:50;;;;;;;20.73;13.27;;;13.50;99.90;;;;;;5029676;28;20462;-75
2022/10/19 09:22:21;;;;;;;22.67;12.98;;;13.50;99.90;;;;;;5017301;28;20476;-75
2022/10/19 09:24:49;;;;;;;19.17;13.55;;;13.50;99.90;;;;;;5011851;28;20053;-76
2022/10/19 09:27:23;;;;;;;20.02;13.02;;;13.50;99.90;;;;;;5012640;28;20030;-76
2022/10/19 09:30:01;;;;;;;16.33;12.15;;;13.50;99.90;;;;;;5011752;28;20021;-74
2022/10/19 09:32:29;;;;;;;20.23;12.85;;;13.50;99.90;;;;;;5029872;28;20021;-75
2022/10/19 09:35:20;;;;;;;18.60;11.50;;;13.50;99.90;;;;;;5032627;28;20436;-74
2022/10/19 09:37:48;;;;;;;15.90;11.20;;;13.60;99.90;;;;;;5010350;28;20041;-76
2022/10/19 09:40:17;;;;;;;24.00;11.45;;;13.60;99.90;;;;;;5019457;28;20026;-76
2022/10/19 09:42:43;;;;;;;16.02;9.98;;;13.80;99.90;;;;;;5021402;28;20109;-75
2022/10/19 09:45:25;;;;;;;13.68;10.50;;;14.00;99.90;;;;;;5027073;28;20053;-76
2022/10/19 09:47:52;;;;;;;14.60;9.93;;;14.10;99.90;;;;;;5024540;28;20017;-76
2022/10/19 09:50:21;;;;;;;16.65;10.57;;;14.20;99.90;;;;;;5019102;28;20605;-76
2022/10/19 09:53:09;;;;;;;16.38;10.30;;;14.10;99.90;;;;;;5032294;28;20026;-74
2022/10/19 09:55:42;;;;;;;11.30;9.43;;;14.30;99.90;;;;;;5030658;28;20120;-75
2022/10/19 09:58:14;;;;;;;13.77;9.55;;;14.20;99.90;;;;;;5031921;28;20032;-75
2022/10/19 10:00:54;;;;;;;13.98;9.27;;;14.10;99.90;;;;;;5020955;28;20029;-76
2022/10/19 10:03:25;;;;;;;14.82;9.48;;;14.30;99.90;;;;;;5006180;28;20391;-76
2022/10/19 10:05:51;;;;;;;15.38;9.60;;;14.30;99.90;;;;;;5018931;28;20025;-76
2022/10/19 10:08:22;;;;;;;12.90;9.63;;;14.50;99.90;;;;;;5024310;28;20144;-76
2022/10/19 10:11:08;;;;;;;12.82;8.98;;;14.20;99.90;;;;;;5012254;28;20026;-75
2022/10/19 10:13:48;;;;;;;13.00;7.88;;;14.30;99.90;;;;;;5012277;28;20018;-76
2022/10/19 10:16:16;;;;;;;13.98;8.40;;;14.50;99.90;;;;;;5025353;28;20145;-75
2022/10/19 10:18:54;;;;;;;11.95;8.77;;;14.60;99.90;;;;;;5024454;28;20029;-75
2022/10/19 10:21:23;;;;;;;12.45;8.57;;;14.70;99.90;;;;;;5006405;28;20029;-75
2022/10/19 10:24:19;;;;;;;13.88;8.32;;;14.60;99.90;;;;;;5016094;28;20075;-75
2022/10/19 10:26:50;;;;;;;12.05;8.23;;;14.60;99.90;;;;;;5023591;28;20487;-75
2022/10/19 10:29:27;;;;;;;11.65;8.88;;;14.60;99.90;;;;;;5012252;28;20507;-76
2022/10/19 10:32:16;;;;;;;12.02;8.07;;;14.70;99.90;;;;;;5013275;28;20050;-76
2022/10/19 10:34:46;;;;;;;11.55;8.48;;;14.70;99.90;;;;;;5019441;28;20026;-76
2022/10/19 10:37:18;;;;;;;15.32;9.02;;;14.90;99.90;;;;;;5025457;28;20453;-76
2022/10/19 10:39:46;;;;;;;13.68;8.13;;;14.90;99.90;;;;;;5023399;28;20025;-76
2022/10/19 10:42:18;;;;;;;15.40;8.85;;;14.80;99.90;;;;;;5018547;28;20044;-76
2022/10/19 10:44:50;;;;;;;11.95;8.85;;;14.90;99.90;;;;;;5018430;28;20030;-76
2022/10/19 10:47:20;;;;;;;13.90;8.80;;;14.90;99.90;;;;;;5022510;28;20030;-75
2022/10/19 10:49:57;;;;;;;10.25;8.05;;;14.90;99.90;;;;;;5010475;28;20381;-75
2022/10/19 10:52:24;;;;;;;11.82;8.05;;;15.10;99.90;;;;;;5021451;28;20464;-75
2022/10/19 10:55:09;;;;;;;11.23;7.80;;;15.20;99.90;;;;;;5015064;28;20081;-75
2022/10/19 10:57:44;;;;;;;11.32;8.00;;;15.30;99.90;;;;;;5014228;28;20038;-76
2022/10/19 11:00:16;;;;;;;11.75;8.82;;;15.30;99.90;;;;;;4999376;28;20092;-76
2022/10/19 11:03:21;;;;;;;11.38;8.15;;;15.40;99.90;;;;;;5024953;28;20661;-76
2022/10/19 11:05:53;;;;;;;9.35;7.22;;;15.20;99.90;;;;;;5023256;28;20049;-76
2022/10/19 11:08:25;;;;;;;12.13;8.02;;;15.10;99.90;;;;;;5006444;28;20029;-76
2022/10/19 11:10:57;;;;;;;11.30;7.60;;;15.10;99.90;;;;;;5015513;28;20032;-76
2022/10/19 11:13:31;;;;;;;11.65;7.88;;;14.80;99.90;;;;;;5020512;28;20080;-75
2022/10/19 11:16:01;;;;;;;11.13;7.78;;;14.60;99.90;;;;;;5016876;28;20049;-75
2022/10/19 11:18:50;;;;;;;10.98;7.60;;;14.60;99.90;;;;;;5030979;28;20038;-75
2022/10/19 11:21:44;;;;;;;9.30;7.50;;;14.50;99.90;;;;;;5008817;28;20028;-74
2022/10/19 11:24:29;;;;;;;12.43;7.97;;;14.70;99.90;;;;;;5016292;28;20026;-75
2022/10/19 11:27:13;;;;;;;11.02;6.93;;;14.70;99.90;;;;;;5026837;28;20083;-75
2022/10/19 11:30:02;;;;;;;9.65;8.35;;;14.70;99.90;;;;;;5015316;28;20044;-75
2022/10/19 11:32:44;;;;;;;11.32;8.90;;;14.80;99.90;;;;;;5016700;28;20066;-76
2022/10/19 11:35:28;;;;;;;10.50;7.88;;;14.70;99.90;;;;;;5026983;28;20025;-75
2022/10/19 11:38:23;;;;;;;10.55;7.32;;;14.80;99.90;;;;;;5012947;28;20360;-76
2022/10/19 11:41:07;;;;;;;9.93;7.72;;;15.10;99.90;;;;;;5009510;28;20017;-76
2022/10/19 11:43:38;;;;;;;8.85;6.53;;;15.40;99.90;;;;;;5021380;28;20398;-75
2022/10/19 11:46:14;;;;;;;8.80;7.28;;;16.60;99.90;;;;;;5023460;28;20479;-76
2022/10/19 11:48:58;;;;;;;9.65;6.78;;;17.30;99.90;;;;;;5020712;28;20057;-77
2022/10/19 11:51:34;;;;;;;10.20;6.85;;;17.80;99.90;;;;;;5021480;28;20022;-76
2022/10/19 11:54:16;;;;;;;9.73;7.00;;;18.50;99.90;;;;;;5024674;28;20022;-74
2022/10/19 11:56:53;;;;;;;9.52;6.65;;;18.00;99.90;;;;;;5033508;28;20057;-75
2022/10/19 11:59:28;;;;;;;8.70;6.45;;;18.00;99.90;;;;;;5032697;28;20053;-75
2022/10/19 12:02:09;;;;;;;11.95;7.28;;;17.70;99.90;;;;;;5022862;28;20033;-74
2022/10/19 12:05:02;;;;;;;10.50;7.45;;;17.20;99.90;;;;;;5017449;28;20770;-75
2022/10/19 12:07:57;;;;;;;10.32;7.30;;;16.60;99.90;;;;;;5027915;28;20028;-76
2022/10/19 12:10:59;;;;;;;9.80;7.72;;;16.30;99.90;;;;;;5023376;28;20152;-76
2022/10/19 12:13:48;;;;;;;9.07;7.88;;;16.30;99.90;;;;;;5013811;28;20013;-75
2022/10/19 12:16:16;;;;;;;10.35;7.18;;;16.10;99.90;;;;;;5014952;28;20049;-75
2022/10/19 12:18:52;;;;;;;10.10;7.07;;;15.80;99.90;;;;;;5027705;23;20045;-72
2022/10/19 12:21:17;;;;;;;;;;;15.50;99.90;;;;;;5011720;28;20049;-72
2022/10/19 12:23:45;;;;;;;11.20;7.70;;;15.60;99.90;;;;;;5001240;28;20355;-72
2022/10/19 12:26:16;;;;;;;10.27;7.00;;;15.60;99.90;;;;;;5007427;28;20031;-72
2022/10/19 12:28:48;;;;;;;9.65;7.40;;;15.70;99.90;;;;;;4999798;28;20018;-72
2022/10/19 12:31:15;;;;;;;11.50;8.07;;;15.70;99.90;;;;;;5003429;28;20508;-72
2022/10/19 12:33:59;;;;;;;9.95;7.93;;;15.80;99.90;;;;;;5007792;28;20022;-72
2022/10/19 12:36:28;;;;;;;9.82;7.20;;;15.80;99.90;;;;;;5006113;28;20029;-72
2022/10/19 12:39:19;;;;;;;12.02;8.27;;;15.80;99.90;;;;;;5000584;28;20101;-72
2022/10/19 12:42:18;;;;;;;11.32;7.65;;;15.80;99.90;;;;;;4997302;28;20113;-72
2022/10/19 12:44:49;;;;;;;11.95;7.45;;;15.70;99.90;;;;;;5007315;28;20488;-72
2022/10/19 12:47:21;;;;;;;12.65;8.00;;;15.90;99.90;;;;;;5001609;28;20102;-72
2022/10/19 12:49:51;;;;;;;9.50;7.60;;;15.70;99.90;;;;;;5000750;28;20026;-72
2022/10/19 12:52:37;;;;;;;9.15;7.20;;;16.10;99.90;;;;;;5004705;28;20034;-72